sensor_id;sensor_type;location;lat;lon;timestamp;pressure;altitude;pressure_sealevel;temperature;humidity
10392;BME280;5242;49.244;6.774;2023-03-01T00:02:44;100509.59;;;-0.36;nan
10392;BME280;5242;49.244;6.774;2023-03-01T00:10:36;100512.00;;;-0.40;nan
10392;BME280;5242;49.244;6.774;2023-03-01T00:18:28;100514.09;;;-0.47;nan
10392;BME280;5242;49.244;6.774;2023-03-01T00:26:24;100509.22;;;-0.55;nan
10392;BME280;5242;49.244;6.774;2023-03-01T00:34:16;100516.63;;;-0.62;nan
10392;BME280;5242;49.244;6.774;2023-03-01T00:42:08;100503.13;;;-0.78;nan
10392;BME280;5242;49.244;6.774;2023-03-01T00:50:00;100500.41;;;-0.83;nan
10392;BME280;5242;49.244;6.774;2023-03-01T00:57:52;100492.03;;;-0.92;nan
10392;BME280;5242;49.244;6.774;2023-03-01T01:05:44;100490.06;;;-1.01;nan
10392;BME280;5242;49.244;6.774;2023-03-01T01:13:37;100481.91;;;-1.17;nan
10392;BME280;5242;49.244;6.774;2023-03-01T01:21:29;100477.06;;;-1.20;nan
10392;BME280;5242;49.244;6.774;2023-03-01T01:29:21;100482.94;;;-1.18;nan
10392;BME280;5242;49.244;6.774;2023-03-01T01:37:13;100482.72;;;-1.16;nan
10392;BME280;5242;49.244;6.774;2023-03-01T01:45:32;100480.84;;;-1.16;nan
10392;BME280;5242;49.244;6.774;2023-03-01T01:53:25;100468.84;;;-1.13;nan
10392;BME280;5242;49.244;6.774;2023-03-01T02:01:17;100471.78;;;-1.15;nan
10392;BME280;5242;49.244;6.774;2023-03-01T02:09:12;100453.00;;;-1.20;nan
10392;BME280;5242;49.244;6.774;2023-03-01T02:17:05;100448.56;;;-1.36;nan
10392;BME280;5242;49.244;6.774;2023-03-01T02:33:10;100420.13;;;-1.47;nan
10392;BME280;5242;49.244;6.774;2023-03-01T02:41:03;100408.81;;;-1.55;nan
10392;BME280;5242;49.244;6.774;2023-03-01T02:48:57;100395.88;;;-1.68;nan
10392;BME280;5242;49.244;6.774;2023-03-01T02:56:50;100396.50;;;-1.83;nan
10392;BME280;5242;49.244;6.774;2023-03-01T03:04:42;100386.03;;;-2.11;nan
10392;BME280;5242;49.244;6.774;2023-03-01T03:12:34;100382.63;;;-2.46;nan
10392;BME280;5242;49.244;6.774;2023-03-01T03:20:27;100379.28;;;-2.58;nan
10392;BME280;5242;49.244;6.774;2023-03-01T03:28:19;100375.41;;;-2.67;nan
10392;BME280;5242;49.244;6.774;2023-03-01T03:36:20;100376.41;;;-2.73;nan
10392;BME280;5242;49.244;6.774;2023-03-01T03:44:12;100373.59;;;-2.83;nan
10392;BME280;5242;49.244;6.774;2023-03-01T03:52:03;100365.28;;;-3.04;nan
10392;BME280;5242;49.244;6.774;2023-03-01T03:59:55;100359.31;;;-3.11;nan
10392;BME280;5242;49.244;6.774;2023-03-01T04:07:47;100341.06;;;-3.19;nan
10392;BME280;5242;49.244;6.774;2023-03-01T04:15:39;100329.75;;;-3.26;nan
10392;BME280;5242;49.244;6.774;2023-03-01T04:23:31;100328.94;;;-3.27;nan
10392;BME280;5242;49.244;6.774;2023-03-01T04:31:22;100319.50;;;-3.35;nan
10392;BME280;5242;49.244;6.774;2023-03-01T04:39:14;100321.19;;;-3.29;nan
10392;BME280;5242;49.244;6.774;2023-03-01T04:47:06;100323.84;;;-3.29;nan
10392;BME280;5242;49.244;6.774;2023-03-01T04:54:58;100310.91;;;-3.03;nan
10392;BME280;5242;49.244;6.774;2023-03-01T05:02:52;100318.50;;;-2.95;nan
10392;BME280;5242;49.244;6.774;2023-03-01T05:10:47;100323.41;;;-2.87;nan
10392;BME280;5242;49.244;6.774;2023-03-01T05:18:40;100320.66;;;-2.75;nan
10392;BME280;5242;49.244;6.774;2023-03-01T05:26:32;100321.59;;;-2.64;nan
10392;BME280;5242;49.244;6.774;2023-03-01T05:34:26;100317.38;;;-2.60;nan
10392;BME280;5242;49.244;6.774;2023-03-01T05:42:18;100317.75;;;-2.51;nan
10392;BME280;5242;49.244;6.774;2023-03-01T05:50:17;100308.25;;;-2.42;nan
10392;BME280;5242;49.244;6.774;2023-03-01T05:58:21;100299.69;;;-2.44;nan
10392;BME280;5242;49.244;6.774;2023-03-01T06:06:13;100296.16;;;-2.50;nan
10392;BME280;5242;49.244;6.774;2023-03-01T06:14:05;100297.16;;;-2.56;nan
10392;BME280;5242;49.244;6.774;2023-03-01T06:21:57;100289.47;;;-2.52;nan
10392;BME280;5242;49.244;6.774;2023-03-01T06:29:49;100288.84;;;-2.37;nan
10392;BME280;5242;49.244;6.774;2023-03-01T06:37:41;100291.19;;;-2.19;nan
10392;BME280;5242;49.244;6.774;2023-03-01T06:45:33;100291.91;;;-2.02;nan
10392;BME280;5242;49.244;6.774;2023-03-01T06:53:25;100292.31;;;-1.61;nan
10392;BME280;5242;49.244;6.774;2023-03-01T07:01:17;100297.75;;;-0.66;nan
10392;BME280;5242;49.244;6.774;2023-03-01T07:09:09;100285.66;;;-0.05;nan
10392;BME280;5242;49.244;6.774;2023-03-01T07:17:00;100282.53;;;0.54;nan
10392;BME280;5242;49.244;6.774;2023-03-01T07:24:52;100278.66;;;1.27;nan
10392;BME280;5242;49.244;6.774;2023-03-01T07:32:44;100264.22;;;2.86;nan
10392;BME280;5242;49.244;6.774;2023-03-01T07:40:37;100257.81;;;5.64;nan
10392;BME280;5242;49.244;6.774;2023-03-01T07:48:29;100241.78;;;6.94;nan
10392;BME280;5242;49.244;6.774;2023-03-01T07:56:21;100239.09;;;7.51;nan
10392;BME280;5242;49.244;6.774;2023-03-01T08:04:13;100231.16;;;7.63;nan
10392;BME280;5242;49.244;6.774;2023-03-01T08:12:05;100217.63;;;8.24;nan
10392;BME280;5242;49.244;6.774;2023-03-01T08:19:57;100214.91;;;8.24;nan
10392;BME280;5242;49.244;6.774;2023-03-01T08:27:49;100213.31;;;8.41;nan
10392;BME280;5242;49.244;6.774;2023-03-01T08:35:41;100204.22;;;8.45;nan
10392;BME280;5242;49.244;6.774;2023-03-01T08:43:32;100198.28;;;8.99;nan
10392;BME280;5242;49.244;6.774;2023-03-01T08:51:25;100192.97;;;9.41;nan
10392;BME280;5242;49.244;6.774;2023-03-01T08:59:18;100188.25;;;10.13;nan
10392;BME280;5242;49.244;6.774;2023-03-01T09:07:10;100172.38;;;10.94;nan
10392;BME280;5242;49.244;6.774;2023-03-01T09:15:02;100169.34;;;10.62;nan
10392;BME280;5242;49.244;6.774;2023-03-01T09:22:54;100167.78;;;10.86;nan
10392;BME280;5242;49.244;6.774;2023-03-01T09:30:46;100160.88;;;10.76;nan
10392;BME280;5242;49.244;6.774;2023-03-01T09:38:38;100148.25;;;11.45;nan
10392;BME280;5242;49.244;6.774;2023-03-01T09:46:35;100139.47;;;11.92;nan
10392;BME280;5242;49.244;6.774;2023-03-01T09:54:29;100130.94;;;11.94;nan
10392;BME280;5242;49.244;6.774;2023-03-01T10:02:30;100129.09;;;13.41;nan
10392;BME280;5242;49.244;6.774;2023-03-01T10:10:38;100110.53;;;13.50;nan
10392;BME280;5242;49.244;6.774;2023-03-01T10:18:33;100108.09;;;13.84;nan
10392;BME280;5242;49.244;6.774;2023-03-01T10:34:35;100098.63;;;14.01;nan
10392;BME280;5242;49.244;6.774;2023-03-01T10:42:30;100093.53;;;13.41;nan
10392;BME280;5242;49.244;6.774;2023-03-01T10:50:23;100083.34;;;13.22;nan
10392;BME280;5242;49.244;6.774;2023-03-01T11:14:14;100054.66;;;13.70;nan
10392;BME280;5242;49.244;6.774;2023-03-01T11:22:19;100040.28;;;13.77;nan
10392;BME280;5242;49.244;6.774;2023-03-01T11:30:31;100021.66;;;13.63;nan
10392;BME280;5242;49.244;6.774;2023-03-01T11:38:26;100016.06;;;14.48;nan
10392;BME280;5242;49.244;6.774;2023-03-01T12:11:03;99969.84;;;14.47;nan
10392;BME280;5242;49.244;6.774;2023-03-01T12:19:12;99954.16;;;15.00;nan
10392;BME280;5242;49.244;6.774;2023-03-01T12:43:31;99905.94;;;14.12;nan
10392;BME280;5242;49.244;6.774;2023-03-01T12:51:30;99905.78;;;13.13;nan
10392;BME280;5242;49.244;6.774;2023-03-01T13:15:40;99884.78;;;9.70;nan
10392;BME280;5242;49.244;6.774;2023-03-01T13:23:37;99883.44;;;8.85;nan
10392;BME280;5242;49.244;6.774;2023-03-01T13:39:31;99874.78;;;10.48;nan
10392;BME280;5242;49.244;6.774;2023-03-01T13:47:24;99865.53;;;9.88;nan
10392;BME280;5242;49.244;6.774;2023-03-01T13:55:21;99854.22;;;8.82;nan
10392;BME280;5242;49.244;6.774;2023-03-01T14:03:19;99836.00;;;9.16;nan
10392;BME280;5242;49.244;6.774;2023-03-01T14:19:31;99846.81;;;8.28;nan
10392;BME280;5242;49.244;6.774;2023-03-01T14:27:28;99830.19;;;7.50;nan
10392;BME280;5242;49.244;6.774;2023-03-01T14:35:51;99834.78;;;7.02;nan
10392;BME280;5242;49.244;6.774;2023-03-01T14:43:41;99825.56;;;6.94;nan
10392;BME280;5242;49.244;6.774;2023-03-01T14:51:39;99837.81;;;6.92;nan
10392;BME280;5242;49.244;6.774;2023-03-01T14:59:33;99831.00;;;6.86;nan
10392;BME280;5242;49.244;6.774;2023-03-01T15:07:29;99826.38;;;6.69;nan
10392;BME280;5242;49.244;6.774;2023-03-01T15:23:26;99844.06;;;6.75;nan
10392;BME280;5242;49.244;6.774;2023-03-01T15:31:25;99829.38;;;6.85;nan
10392;BME280;5242;49.244;6.774;2023-03-01T15:47:29;99834.03;;;6.75;nan
10392;BME280;5242;49.244;6.774;2023-03-01T15:55:24;99847.25;;;6.86;nan
10392;BME280;5242;49.244;6.774;2023-03-01T16:03:21;99846.94;;;6.61;nan
10392;BME280;5242;49.244;6.774;2023-03-01T16:11:18;99862.69;;;6.50;nan
10392;BME280;5242;49.244;6.774;2023-03-01T16:19:10;99868.56;;;6.44;nan
10392;BME280;5242;49.244;6.774;2023-03-01T16:27:02;99867.28;;;6.32;nan
10392;BME280;5242;49.244;6.774;2023-03-01T16:34:54;99859.19;;;6.24;nan
10392;BME280;5242;49.244;6.774;2023-03-01T16:42:46;99867.75;;;6.17;nan
10392;BME280;5242;49.244;6.774;2023-03-01T16:50:38;99862.34;;;6.08;nan
10392;BME280;5242;49.244;6.774;2023-03-01T16:58:30;99866.13;;;5.99;nan
10392;BME280;5242;49.244;6.774;2023-03-01T17:06:22;99859.84;;;5.89;nan
10392;BME280;5242;49.244;6.774;2023-03-01T17:14:16;99873.66;;;5.79;nan
10392;BME280;5242;49.244;6.774;2023-03-01T17:22:09;99873.44;;;5.67;nan
10392;BME280;5242;49.244;6.774;2023-03-01T17:30:02;99892.78;;;5.52;nan
10392;BME280;5242;49.244;6.774;2023-03-01T17:37:53;99899.19;;;5.33;nan
10392;BME280;5242;49.244;6.774;2023-03-01T17:45:45;99878.59;;;5.15;nan
10392;BME280;5242;49.244;6.774;2023-03-01T17:53:39;99884.25;;;5.05;nan
10392;BME280;5242;49.244;6.774;2023-03-01T18:01:31;99873.25;;;5.01;nan
10392;BME280;5242;49.244;6.774;2023-03-01T18:09:26;99886.09;;;4.95;nan
10392;BME280;5242;49.244;6.774;2023-03-01T18:17:19;99882.72;;;4.90;nan
10392;BME280;5242;49.244;6.774;2023-03-01T18:25:14;99893.75;;;4.79;nan
10392;BME280;5242;49.244;6.774;2023-03-01T18:33:06;99897.09;;;4.63;nan
10392;BME280;5242;49.244;6.774;2023-03-01T18:40:58;99912.03;;;4.46;nan
10392;BME280;5242;49.244;6.774;2023-03-01T18:48:51;99906.91;;;4.22;nan
10392;BME280;5242;49.244;6.774;2023-03-01T18:56:44;99899.53;;;4.00;nan
10392;BME280;5242;49.244;6.774;2023-03-01T19:04:35;99898.16;;;3.89;nan
10392;BME280;5242;49.244;6.774;2023-03-01T19:12:27;99903.72;;;3.79;nan
10392;BME280;5242;49.244;6.774;2023-03-01T19:20:19;99904.13;;;3.72;nan
10392;BME280;5242;49.244;6.774;2023-03-01T19:28:11;99913.59;;;3.69;nan
10392;BME280;5242;49.244;6.774;2023-03-01T19:36:03;99904.50;;;3.65;nan
10392;BME280;5242;49.244;6.774;2023-03-01T19:43:55;99907.44;;;3.22;nan
10392;BME280;5242;49.244;6.774;2023-03-01T19:51:48;99904.66;;;2.57;nan
10392;BME280;5242;49.244;6.774;2023-03-01T19:59:39;99896.88;;;2.36;nan
10392;BME280;5242;49.244;6.774;2023-03-01T20:07:31;99905.94;;;2.22;nan
10392;BME280;5242;49.244;6.774;2023-03-01T20:15:23;99901.84;;;1.81;nan
10392;BME280;5242;49.244;6.774;2023-03-01T20:23:15;99901.16;;;1.46;nan
10392;BME280;5242;49.244;6.774;2023-03-01T20:31:10;99897.94;;;1.20;nan
10392;BME280;5242;49.244;6.774;2023-03-01T20:39:03;99911.13;;;1.12;nan
10392;BME280;5242;49.244;6.774;2023-03-01T20:46:55;99902.56;;;1.09;nan
10392;BME280;5242;49.244;6.774;2023-03-01T20:54:47;99905.53;;;1.08;nan
10392;BME280;5242;49.244;6.774;2023-03-01T21:02:39;99899.50;;;0.92;nan
10392;BME280;5242;49.244;6.774;2023-03-01T21:10:32;99897.47;;;0.74;nan
10392;BME280;5242;49.244;6.774;2023-03-01T21:18:24;99898.94;;;0.56;nan
10392;BME280;5242;49.244;6.774;2023-03-01T21:26:23;99886.38;;;0.51;nan
10392;BME280;5242;49.244;6.774;2023-03-01T21:34:15;99874.19;;;0.69;nan
10392;BME280;5242;49.244;6.774;2023-03-01T21:42:07;99865.09;;;0.99;nan
10392;BME280;5242;49.244;6.774;2023-03-01T21:49:59;99850.16;;;1.17;nan
10392;BME280;5242;49.244;6.774;2023-03-01T21:57:51;99853.88;;;1.50;nan
10392;BME280;5242;49.244;6.774;2023-03-01T22:05:53;99834.28;;;1.74;nan
10392;BME280;5242;49.244;6.774;2023-03-01T22:13:46;99836.25;;;1.87;nan
10392;BME280;5242;49.244;6.774;2023-03-01T22:21:41;99844.25;;;1.92;nan
10392;BME280;5242;49.244;6.774;2023-03-01T22:29:34;99836.19;;;1.92;nan
10392;BME280;5242;49.244;6.774;2023-03-01T22:37:26;99845.06;;;1.93;nan
10392;BME280;5242;49.244;6.774;2023-03-01T22:45:18;99835.75;;;1.85;nan
10392;BME280;5242;49.244;6.774;2023-03-01T22:53:09;99827.81;;;1.75;nan
10392;BME280;5242;49.244;6.774;2023-03-01T23:01:08;99826.78;;;1.71;nan
10392;BME280;5242;49.244;6.774;2023-03-01T23:09:01;99821.78;;;1.64;nan
10392;BME280;5242;49.244;6.774;2023-03-01T23:16:54;99831.25;;;1.57;nan
10392;BME280;5242;49.244;6.774;2023-03-01T23:24:46;99823.03;;;1.48;nan
10392;BME280;5242;49.244;6.774;2023-03-01T23:32:39;99820.91;;;1.45;nan
10392;BME280;5242;49.244;6.774;2023-03-01T23:40:31;99822.34;;;1.37;nan
10392;BME280;5242;49.244;6.774;2023-03-01T23:48:23;99807.38;;;1.31;nan
10392;BME280;5242;49.244;6.774;2023-03-01T23:56:15;99809.09;;;1.22;nan
